createdAt,value
2023-05-14T00:02:07.080Z,17.15
2023-05-14T00:04:36.773Z,15.32
2023-05-14T00:07:06.444Z,17.00
2023-05-14T00:09:36.967Z,22.58
2023-05-14T00:12:08.906Z,17.77
2023-05-14T00:14:38.462Z,16.63
2023-05-14T00:17:08.656Z,18.98
2023-05-14T00:19:38.234Z,13.15
2023-05-14T00:22:07.956Z,16.30
2023-05-14T00:24:38.307Z,16.40
2023-05-14T00:27:08.850Z,17.50
2023-05-14T00:29:38.443Z,18.75
2023-05-14T00:32:08.471Z,18.60
2023-05-14T00:34:38.267Z,16.63
2023-05-14T00:37:07.936Z,16.65
2023-05-14T00:39:37.597Z,18.90
2023-05-14T00:42:07.532Z,13.25
2023-05-14T00:44:38.321Z,16.35
2023-05-14T00:47:08.987Z,15.98
2023-05-14T00:49:41.619Z,18.80
2023-05-14T00:52:11.907Z,12.82
2023-05-14T00:54:41.698Z,10.18
2023-05-14T00:57:11.652Z,11.13
2023-05-14T00:59:43.435Z,11.40
2023-05-14T01:02:13.778Z,13.18
2023-05-14T01:04:43.612Z,10.30
2023-05-14T01:07:26.536Z,13.80
2023-05-14T01:10:10.900Z,11.32
2023-05-14T01:13:20.142Z,15.40
2023-05-14T01:15:50.843Z,11.10
2023-05-14T01:18:21.792Z,9.07
2023-05-14T01:20:54.287Z,11.98
2023-05-14T01:23:23.948Z,12.10
2023-05-14T01:25:53.648Z,9.30
2023-05-14T01:28:34.417Z,9.80
2023-05-14T01:31:15.878Z,8.88
2023-05-14T01:33:47.117Z,13.05
2023-05-14T01:36:17.243Z,8.20
2023-05-14T01:38:48.876Z,7.50
2023-05-14T01:41:20.351Z,6.50
2023-05-14T01:43:50.280Z,7.18
2023-05-14T01:46:23.478Z,5.70
2023-05-14T01:48:53.057Z,5.18
2023-05-14T01:51:22.749Z,5.90
2023-05-14T01:53:52.771Z,7.82
2023-05-14T01:56:25.202Z,6.20
2023-05-14T01:58:54.808Z,6.45
2023-05-14T02:01:24.873Z,5.13
2023-05-14T02:03:54.687Z,6.97
2023-05-14T02:06:24.390Z,5.60
2023-05-14T02:08:53.904Z,5.57
2023-05-14T02:11:23.607Z,5.78
2023-05-14T02:13:53.266Z,11.50
2023-05-14T02:16:22.863Z,5.22
2023-05-14T02:18:52.491Z,7.68
2023-05-14T02:21:22.339Z,5.55
2023-05-14T02:23:52.882Z,5.75
2023-05-14T02:26:23.149Z,6.45
2023-05-14T02:28:52.899Z,5.93
2023-05-14T02:31:22.702Z,7.38
2023-05-14T02:33:53.073Z,4.88
2023-05-14T02:36:22.652Z,9.15
2023-05-14T02:38:52.333Z,5.75
2023-05-14T02:41:23.165Z,8.65
2023-05-14T02:43:52.685Z,6.18
2023-05-14T02:46:22.350Z,6.43
2023-05-14T02:48:52.031Z,12.90
2023-05-14T02:51:23.120Z,5.22
2023-05-14T02:53:52.686Z,6.45
2023-05-14T02:56:22.924Z,7.32
2023-05-14T02:58:52.453Z,6.97
2023-05-14T03:01:22.756Z,7.30
2023-05-14T03:03:52.759Z,5.80
2023-05-14T03:06:22.241Z,8.38
2023-05-14T03:08:52.277Z,5.32
2023-05-14T03:11:22.292Z,8.13
2023-05-14T03:13:51.918Z,10.85
2023-05-14T03:16:21.531Z,8.48
2023-05-14T03:18:51.338Z,9.35
2023-05-14T03:21:21.067Z,8.68
2023-05-14T03:23:50.814Z,6.70
2023-05-14T03:26:20.354Z,9.50
2023-05-14T03:28:49.977Z,5.43
2023-05-14T03:31:19.613Z,5.97
2023-05-14T03:33:49.446Z,5.10
2023-05-14T03:36:19.074Z,5.43
2023-05-14T03:38:48.683Z,10.88
2023-05-14T03:41:20.141Z,9.40
2023-05-14T03:43:49.826Z,8.48
2023-05-14T03:46:19.395Z,6.00
2023-05-14T03:48:49.027Z,9.38
2023-05-14T03:51:18.771Z,11.27
2023-05-14T03:53:48.360Z,11.15
2023-05-14T03:56:18.068Z,6.45
2023-05-14T03:58:47.658Z,8.95
2023-05-14T04:01:17.394Z,6.40
2023-05-14T04:03:47.553Z,14.18
2023-05-14T04:06:17.860Z,7.68
2023-05-14T04:08:47.596Z,17.58
2023-05-14T04:11:17.123Z,4.53
2023-05-14T04:13:46.796Z,10.25
2023-05-14T04:16:16.436Z,10.80
2023-05-14T04:18:46.246Z,7.60
2023-05-14T04:21:16.017Z,3.70
2023-05-14T04:23:45.674Z,8.10
2023-05-14T04:26:15.201Z,6.05
2023-05-14T04:28:44.746Z,4.65
2023-05-14T04:31:15.024Z,6.57
2023-05-14T04:33:44.689Z,5.93
2023-05-14T04:36:14.364Z,3.40
2023-05-14T04:38:44.008Z,10.18
2023-05-14T04:41:13.612Z,13.23
2023-05-14T04:43:43.215Z,5.60
2023-05-14T04:46:13.272Z,5.32
2023-05-14T04:48:43.613Z,9.02
2023-05-14T04:51:13.303Z,5.65
2023-05-14T04:53:42.926Z,6.65
2023-05-14T04:56:12.696Z,7.47
2023-05-14T04:58:42.638Z,13.90
2023-05-14T05:01:12.335Z,4.57
2023-05-14T05:03:42.147Z,5.88
2023-05-14T05:06:11.899Z,5.47
2023-05-14T05:08:41.632Z,4.40
2023-05-14T05:11:11.263Z,9.95
2023-05-14T05:13:40.846Z,4.95
2023-05-14T05:16:10.660Z,7.88
2023-05-14T05:18:40.807Z,7.35
2023-05-14T05:21:10.522Z,7.65
2023-05-14T05:23:40.187Z,9.40
2023-05-14T05:26:09.889Z,5.15
2023-05-14T05:28:39.561Z,8.43
2023-05-14T05:31:09.693Z,5.25
2023-05-14T05:33:39.473Z,7.63
2023-05-14T05:36:09.235Z,4.70
2023-05-14T05:38:39.395Z,6.10
2023-05-14T05:41:09.288Z,3.72
2023-05-14T05:43:38.859Z,5.90
2023-05-14T05:46:09.306Z,6.00
2023-05-14T05:48:38.913Z,4.22
2023-05-14T05:51:08.548Z,7.80
2023-05-14T05:53:38.153Z,3.67
2023-05-14T05:56:08.595Z,5.68
2023-05-14T05:58:38.144Z,5.13
2023-05-14T06:01:08.246Z,4.40
2023-05-14T06:03:38.083Z,7.80
2023-05-14T06:06:08.101Z,4.35
2023-05-14T06:08:37.728Z,7.43
2023-05-14T06:11:07.506Z,6.40
2023-05-14T06:13:37.262Z,7.15
2023-05-14T06:16:07.094Z,4.18
2023-05-14T06:18:36.725Z,5.13
2023-05-14T06:21:06.526Z,7.85
2023-05-14T06:23:36.238Z,5.28
2023-05-14T06:26:05.946Z,7.22
2023-05-14T06:28:35.451Z,5.60
2023-05-14T06:31:04.980Z,5.53
2023-05-14T06:33:34.601Z,8.93
2023-05-14T06:36:07.459Z,4.80
2023-05-14T06:38:37.123Z,5.70
2023-05-14T06:41:06.729Z,5.50
2023-05-14T06:43:36.381Z,6.05
2023-05-14T06:46:05.992Z,7.10
2023-05-14T06:48:35.711Z,3.63
2023-05-14T06:51:05.564Z,6.97
2023-05-14T06:53:35.201Z,12.50
2023-05-14T06:56:04.860Z,6.30
2023-05-14T06:58:34.522Z,8.20
2023-05-14T07:01:04.180Z,7.13
2023-05-14T07:03:33.749Z,6.65
2023-05-14T07:06:03.355Z,7.05
2023-05-14T07:08:32.926Z,10.70
2023-05-14T07:11:02.492Z,7.43
2023-05-14T07:13:32.449Z,7.95
2023-05-14T07:16:02.107Z,8.15
2023-05-14T07:18:31.767Z,6.45
2023-05-14T07:21:01.502Z,8.10
2023-05-14T07:23:31.071Z,9.70
2023-05-14T07:26:00.733Z,7.03
2023-05-14T07:28:30.350Z,10.73
2023-05-14T07:31:00.155Z,11.77
2023-05-14T07:33:29.911Z,10.70
2023-05-14T07:35:59.552Z,5.95
2023-05-14T07:38:29.277Z,6.47
2023-05-14T07:40:58.823Z,7.78
2023-05-14T07:43:28.788Z,13.60
2023-05-14T07:45:58.423Z,13.70
2023-05-14T07:48:28.186Z,6.78
2023-05-14T07:50:57.853Z,9.85
2023-05-14T07:53:28.472Z,9.75
2023-05-14T07:55:58.174Z,7.00
2023-05-14T07:58:29.485Z,7.95
2023-05-14T08:00:59.347Z,6.50
2023-05-14T08:03:29.173Z,8.35
2023-05-14T08:05:58.738Z,7.18
2023-05-14T08:08:29.109Z,19.33
2023-05-14T08:10:58.762Z,9.57
2023-05-14T08:13:28.485Z,12.20
2023-05-14T08:15:58.190Z,10.75
2023-05-14T08:18:27.857Z,12.07
2023-05-14T08:20:57.875Z,8.45
2023-05-14T08:23:28.906Z,6.43
2023-05-14T08:25:58.555Z,7.82
2023-05-14T08:28:28.096Z,7.63
2023-05-14T08:30:57.776Z,8.70
2023-05-14T08:33:27.397Z,6.05
2023-05-14T08:35:57.930Z,11.50
2023-05-14T08:38:28.492Z,10.07
2023-05-14T08:41:02.505Z,7.75
2023-05-14T08:44:00.231Z,6.65
2023-05-14T08:46:31.846Z,5.88
2023-05-14T08:49:27.417Z,7.50
2023-05-14T08:51:58.103Z,13.15
2023-05-14T08:54:28.744Z,9.60
2023-05-14T08:56:58.465Z,10.27
2023-05-14T08:59:28.702Z,8.30
2023-05-14T09:02:03.086Z,10.02
2023-05-14T09:04:33.075Z,9.77
2023-05-14T09:07:04.243Z,7.75
2023-05-14T09:09:33.983Z,6.20
2023-05-14T09:12:03.941Z,5.45
2023-05-14T09:14:35.088Z,10.38
2023-05-14T09:17:05.191Z,7.60
2023-05-14T09:19:34.941Z,8.10
2023-05-14T09:22:10.108Z,8.07
2023-05-14T09:24:40.520Z,6.18
2023-05-14T09:27:11.747Z,6.13
2023-05-14T09:29:41.340Z,10.05
2023-05-14T09:32:12.510Z,9.07
2023-05-14T09:34:42.879Z,8.68
2023-05-14T09:37:12.747Z,9.35
2023-05-14T09:39:42.377Z,12.98
2023-05-14T09:42:12.311Z,10.02
2023-05-14T09:44:42.167Z,7.40
2023-05-14T09:47:11.831Z,7.82
2023-05-14T09:49:42.625Z,9.30
2023-05-14T09:52:13.780Z,7.60
2023-05-14T09:54:43.421Z,7.63
2023-05-14T09:57:13.014Z,7.00
2023-05-14T09:59:42.783Z,8.15
2023-05-14T10:02:28.991Z,6.78
2023-05-14T10:05:05.354Z,10.27
2023-05-14T10:07:53.451Z,10.40
2023-05-14T10:10:25.707Z,9.30
2023-05-14T10:13:05.759Z,12.20
2023-05-14T10:16:01.998Z,7.60
2023-05-14T10:18:35.379Z,12.57
2023-05-14T10:21:09.511Z,10.13
2023-05-14T10:23:39.853Z,7.65
2023-05-14T10:26:11.185Z,10.90
2023-05-14T10:28:41.056Z,10.95
2023-05-14T10:31:12.484Z,7.22
2023-05-14T10:33:52.803Z,10.52
2023-05-14T10:36:23.996Z,10.10
2023-05-14T10:38:58.994Z,12.10
2023-05-14T10:41:28.613Z,8.15
2023-05-14T10:44:01.296Z,9.63
2023-05-14T10:46:31.082Z,8.52
2023-05-14T10:49:02.143Z,12.38
2023-05-14T10:51:34.052Z,11.95
2023-05-14T10:54:03.805Z,9.70
2023-05-14T10:56:35.040Z,14.43
2023-05-14T10:59:05.283Z,11.15
2023-05-14T11:01:35.254Z,7.22
2023-05-14T11:04:06.147Z,10.85
2023-05-14T11:06:36.474Z,7.10
2023-05-14T11:09:06.865Z,11.30
2023-05-14T11:11:37.303Z,11.82
2023-05-14T11:14:08.418Z,10.57
2023-05-14T11:16:39.525Z,8.45
2023-05-14T11:19:09.244Z,9.35
2023-05-14T11:21:38.886Z,7.68
2023-05-14T11:24:09.094Z,8.88
2023-05-14T11:26:38.938Z,10.00
2023-05-14T11:29:08.804Z,13.38
2023-05-14T11:31:38.940Z,7.88
2023-05-14T11:34:10.222Z,7.90
2023-05-14T11:36:40.053Z,9.95
2023-05-14T11:39:09.920Z,7.72
2023-05-14T11:41:45.554Z,11.10
2023-05-14T11:44:15.368Z,7.57
2023-05-14T11:47:00.113Z,11.30
2023-05-14T11:49:32.085Z,17.65
2023-05-14T11:52:09.382Z,11.93
2023-05-14T11:54:39.449Z,10.80
2023-05-14T11:57:15.587Z,12.02
2023-05-14T11:59:45.387Z,10.18
2023-05-14T12:02:17.132Z,8.63
2023-05-14T12:04:51.531Z,12.55
2023-05-14T12:07:21.247Z,18.30
2023-05-14T12:09:51.740Z,9.60
2023-05-14T12:12:23.472Z,8.88
2023-05-14T12:14:54.689Z,13.40
2023-05-14T12:17:25.757Z,20.55
2023-05-14T12:19:55.558Z,9.32
2023-05-14T12:22:25.676Z,13.48
2023-05-14T12:24:59.913Z,15.20
2023-05-14T12:27:31.346Z,15.88
2023-05-14T12:30:20.781Z,15.07
2023-05-14T12:32:54.185Z,13.18
2023-05-14T12:35:24.458Z,18.40
2023-05-14T12:37:54.373Z,15.98
2023-05-14T12:40:24.145Z,13.88
2023-05-14T12:42:55.469Z,11.60
2023-05-14T12:45:26.373Z,9.15
2023-05-14T12:47:56.037Z,13.38
2023-05-14T12:50:26.542Z,17.27
2023-05-14T12:52:56.404Z,11.50
2023-05-14T12:55:26.107Z,19.08
2023-05-14T12:57:56.365Z,14.00
2023-05-14T13:00:26.333Z,12.57
2023-05-14T13:02:56.065Z,13.50
2023-05-14T13:05:25.992Z,12.25
2023-05-14T13:07:55.950Z,16.10
2023-05-14T13:10:25.506Z,14.27
2023-05-14T13:12:55.102Z,13.93
2023-05-14T13:15:25.473Z,16.05
2023-05-14T13:17:55.373Z,13.85
2023-05-14T13:20:25.314Z,17.95
2023-05-14T13:22:54.934Z,18.25
2023-05-14T13:25:25.030Z,15.68
2023-05-14T13:27:55.153Z,15.50
2023-05-14T13:30:24.784Z,14.93
2023-05-14T13:32:54.667Z,14.68
2023-05-14T13:35:24.672Z,18.13
2023-05-14T13:37:54.486Z,14.00
2023-05-14T13:40:24.205Z,13.60
2023-05-14T13:42:53.847Z,22.55
2023-05-14T13:45:23.675Z,14.23
2023-05-14T13:47:53.481Z,10.55
2023-05-14T13:50:23.892Z,11.50
2023-05-14T13:52:53.829Z,24.23
2023-05-14T13:55:23.598Z,12.40
2023-05-14T13:57:53.474Z,9.57
2023-05-14T14:00:23.640Z,12.43
2023-05-14T14:02:53.325Z,17.48
2023-05-14T14:05:23.284Z,13.48
2023-05-14T14:07:57.436Z,16.95
2023-05-14T14:10:38.270Z,21.95
2023-05-14T14:13:08.583Z,24.27
2023-05-14T14:15:39.124Z,13.40
2023-05-14T14:18:08.890Z,19.23
2023-05-14T14:20:38.546Z,17.13
2023-05-14T14:23:08.141Z,13.15
2023-05-14T14:25:40.258Z,12.00
2023-05-14T14:28:09.958Z,16.05
2023-05-14T14:30:39.589Z,16.17
2023-05-14T14:33:09.239Z,27.60
2023-05-14T14:35:39.434Z,15.32
2023-05-14T14:38:09.036Z,10.90
2023-05-14T14:40:38.693Z,15.45
2023-05-14T14:43:08.524Z,16.60
2023-05-14T14:45:38.240Z,15.25
2023-05-14T14:48:41.479Z,22.23
2023-05-14T14:51:11.877Z,16.85
2023-05-14T14:53:42.153Z,20.52
2023-05-14T14:56:11.832Z,20.52
2023-05-14T14:58:41.603Z,20.92
2023-05-14T15:01:11.422Z,21.05
2023-05-14T15:03:41.204Z,23.45
2023-05-14T15:06:11.029Z,19.83
2023-05-14T15:08:40.637Z,19.17
2023-05-14T15:11:10.915Z,19.08
2023-05-14T15:13:41.735Z,24.25
2023-05-14T15:16:11.464Z,22.90
2023-05-14T15:18:41.094Z,23.45
2023-05-14T15:21:10.886Z,19.63
2023-05-14T15:23:40.454Z,22.67
2023-05-14T15:26:10.286Z,25.33
2023-05-14T15:28:39.883Z,21.58
2023-05-14T15:31:09.647Z,15.38
2023-05-14T15:33:39.458Z,16.20
2023-05-14T15:36:09.346Z,18.65
2023-05-14T15:38:39.260Z,17.60
2023-05-14T15:41:09.219Z,16.10
2023-05-14T15:43:38.851Z,15.57
2023-05-14T15:46:08.522Z,24.73
2023-05-14T15:48:38.509Z,19.10
2023-05-14T15:51:08.100Z,16.33
2023-05-14T15:53:37.868Z,23.05
2023-05-14T15:56:07.761Z,19.42
2023-05-14T15:58:37.415Z,23.00
2023-05-14T16:01:07.261Z,17.98
2023-05-14T16:03:37.100Z,15.48
2023-05-14T16:06:07.248Z,15.32
2023-05-14T16:08:39.096Z,20.88
2023-05-14T16:11:09.255Z,16.67
2023-05-14T16:13:40.089Z,24.42
2023-05-14T16:16:10.037Z,16.77
2023-05-14T16:18:40.633Z,29.05
2023-05-14T16:21:10.521Z,18.23
2023-05-14T16:23:40.114Z,18.67
2023-05-14T16:26:09.732Z,16.98
2023-05-14T16:28:42.770Z,21.67
2023-05-14T16:31:12.418Z,19.83
2023-05-14T16:33:42.102Z,15.98
2023-05-14T16:36:12.167Z,17.75
2023-05-14T16:38:48.331Z,19.33
2023-05-14T16:41:26.815Z,19.20
2023-05-14T16:43:56.442Z,24.15
2023-05-14T16:46:26.082Z,22.65
2023-05-14T16:48:56.015Z,22.80
2023-05-14T16:51:25.788Z,24.02
2023-05-14T16:53:55.713Z,30.67
2023-05-14T16:56:25.505Z,32.53
2023-05-14T16:58:55.262Z,34.30
2023-05-14T17:01:24.863Z,25.10
2023-05-14T17:03:54.539Z,24.23
2023-05-14T17:06:24.185Z,23.63
2023-05-14T17:08:53.838Z,21.95
2023-05-14T17:11:23.587Z,26.60
2023-05-14T17:13:53.156Z,30.08
2023-05-14T17:16:23.623Z,23.45
2023-05-14T17:18:53.302Z,30.33
2023-05-14T17:21:22.943Z,31.10
2023-05-14T17:23:52.696Z,25.23
2023-05-14T17:26:22.898Z,25.15
2023-05-14T17:28:52.595Z,22.27
2023-05-14T17:31:23.533Z,22.85
2023-05-14T17:33:53.285Z,16.75
2023-05-14T17:36:22.944Z,20.05
2023-05-14T17:38:52.602Z,21.30
2023-05-14T17:41:23.431Z,24.25
2023-05-14T17:43:54.102Z,22.70
2023-05-14T17:46:23.931Z,20.38
2023-05-14T17:48:53.673Z,27.30
2023-05-14T17:51:23.476Z,22.48
2023-05-14T17:53:53.242Z,20.38
2023-05-14T17:56:22.853Z,25.08
2023-05-14T17:58:52.579Z,20.63
2023-05-14T18:01:22.144Z,20.02
2023-05-14T18:03:51.987Z,22.25
2023-05-14T18:06:21.635Z,23.55
2023-05-14T18:08:51.606Z,21.38
2023-05-14T18:11:21.262Z,19.17
2023-05-14T18:13:50.857Z,26.17
2023-05-14T18:16:20.528Z,25.88
2023-05-14T18:18:50.165Z,20.63
2023-05-14T18:21:19.882Z,22.48
2023-05-14T18:23:49.561Z,30.65
2023-05-14T18:26:19.304Z,21.05
2023-05-14T18:28:48.924Z,22.75
2023-05-14T18:31:18.592Z,24.90
2023-05-14T18:33:48.388Z,25.23
2023-05-14T18:36:19.545Z,24.17
2023-05-14T18:38:49.214Z,21.65
2023-05-14T18:41:19.003Z,27.88
2023-05-14T18:43:48.559Z,25.58
2023-05-14T18:46:18.347Z,25.33
2023-05-14T18:48:47.988Z,26.77
2023-05-14T18:51:17.678Z,32.08
2023-05-14T18:53:47.333Z,16.58
2023-05-14T18:56:17.241Z,24.35
2023-05-14T18:58:47.022Z,27.02
2023-05-14T19:01:16.603Z,18.45
2023-05-14T19:03:46.446Z,24.30
2023-05-14T19:06:16.205Z,24.33
2023-05-14T19:08:45.995Z,23.30
2023-05-14T19:11:15.711Z,26.70
2023-05-14T19:13:48.338Z,21.33
2023-05-14T19:16:18.329Z,18.80
2023-05-14T19:18:48.141Z,24.85
2023-05-14T19:21:17.968Z,32.22
2023-05-14T19:23:47.745Z,22.40
2023-05-14T19:26:17.716Z,24.27
2023-05-14T19:28:47.380Z,20.63
2023-05-14T19:31:17.524Z,22.52
2023-05-14T19:33:47.416Z,22.40
2023-05-14T19:36:17.210Z,22.25
2023-05-14T19:38:47.099Z,23.42
2023-05-14T19:41:16.975Z,24.17
2023-05-14T19:43:46.668Z,23.20
2023-05-14T19:46:16.896Z,26.50
2023-05-14T19:48:46.594Z,22.63
2023-05-14T19:51:16.490Z,27.23
2023-05-14T19:53:46.895Z,32.45
2023-05-14T19:56:17.278Z,31.65
2023-05-14T19:58:47.092Z,25.63
2023-05-14T20:01:16.939Z,25.83
2023-05-14T20:03:46.657Z,25.13
2023-05-14T20:06:16.755Z,31.30
2023-05-14T20:08:48.129Z,28.33
2023-05-14T20:11:19.703Z,27.23
2023-05-14T20:13:49.645Z,28.23
2023-05-14T20:16:19.289Z,20.77
2023-05-14T20:18:49.005Z,21.00
2023-05-14T20:21:21.259Z,25.02
2023-05-14T20:23:50.977Z,22.52
2023-05-14T20:26:20.686Z,23.67
2023-05-14T20:28:50.261Z,28.02
2023-05-14T20:31:20.889Z,29.95
2023-05-14T20:33:50.675Z,33.90
2023-05-14T20:36:20.338Z,23.00
2023-05-14T20:38:49.992Z,26.85
2023-05-14T20:41:19.616Z,21.98
2023-05-14T20:43:49.137Z,21.63
2023-05-14T20:46:18.837Z,21.00
2023-05-14T20:48:50.102Z,24.52
2023-05-14T20:51:19.673Z,22.45
2023-05-14T20:53:49.399Z,22.60
2023-05-14T20:56:19.233Z,26.40
2023-05-14T20:58:48.849Z,30.45
2023-05-14T21:01:18.520Z,31.98
2023-05-14T21:03:48.575Z,26.42
2023-05-14T21:06:18.239Z,21.60
2023-05-14T21:08:47.764Z,21.35
2023-05-14T21:11:17.361Z,21.73
2023-05-14T21:13:47.314Z,21.75
2023-05-14T21:16:16.988Z,20.65
2023-05-14T21:18:46.788Z,22.95
2023-05-14T21:21:16.512Z,23.48
2023-05-14T21:23:46.270Z,21.48
2023-05-14T21:26:15.922Z,22.48
2023-05-14T21:28:45.638Z,15.05
2023-05-14T21:31:15.268Z,23.55
2023-05-14T21:33:45.025Z,18.98
2023-05-14T21:36:14.726Z,21.58
2023-05-14T21:38:44.420Z,23.13
2023-05-14T21:41:13.983Z,27.13
2023-05-14T21:43:43.753Z,29.85
2023-05-14T21:46:13.728Z,18.50
2023-05-14T21:48:43.547Z,16.75
2023-05-14T21:51:13.198Z,26.70
2023-05-14T21:53:42.941Z,16.50
2023-05-14T21:56:12.819Z,20.33
2023-05-14T21:58:43.244Z,19.58
2023-05-14T22:01:13.247Z,22.15
2023-05-14T22:03:43.161Z,26.02
2023-05-14T22:06:12.850Z,19.33
2023-05-14T22:08:42.452Z,24.88
2023-05-14T22:11:11.976Z,21.90
2023-05-14T22:13:42.710Z,21.60
2023-05-14T22:16:14.394Z,21.55
2023-05-14T22:18:44.375Z,24.70
2023-05-14T22:21:14.093Z,18.90
2023-05-14T22:23:43.906Z,21.23
2023-05-14T22:26:13.807Z,21.75
2023-05-14T22:28:44.832Z,19.92
2023-05-14T22:31:14.501Z,22.08
2023-05-14T22:33:44.201Z,21.67
2023-05-14T22:36:13.930Z,25.20
2023-05-14T22:38:45.408Z,33.03
2023-05-14T22:41:15.276Z,26.60
2023-05-14T22:43:45.001Z,29.00
2023-05-14T22:46:15.115Z,23.70
2023-05-14T22:48:44.700Z,23.08
2023-05-14T22:51:14.276Z,23.35
2023-05-14T22:53:43.920Z,26.95
2023-05-14T22:56:13.743Z,26.98
2023-05-14T22:58:43.363Z,29.70
2023-05-14T23:01:13.050Z,27.50
2023-05-14T23:03:42.758Z,25.88
2023-05-14T23:06:15.318Z,27.75
2023-05-14T23:08:44.952Z,23.98
2023-05-14T23:11:14.995Z,24.95
2023-05-14T23:13:44.620Z,23.60
2023-05-14T23:16:14.328Z,38.15
2023-05-14T23:18:44.404Z,21.63
2023-05-14T23:21:15.289Z,19.70
2023-05-14T23:23:44.935Z,28.50
2023-05-14T23:26:14.621Z,23.73
2023-05-14T23:28:44.372Z,29.15
2023-05-14T23:31:13.988Z,26.98
2023-05-14T23:33:46.189Z,33.35
2023-05-14T23:36:15.931Z,29.48
2023-05-14T23:38:45.926Z,23.65
2023-05-14T23:41:15.666Z,25.83
2023-05-14T23:43:45.351Z,21.48
2023-05-14T23:46:15.114Z,23.10
2023-05-14T23:48:45.056Z,25.05
2023-05-14T23:51:14.632Z,27.08
2023-05-14T23:53:44.213Z,40.17
2023-05-14T23:56:14.595Z,27.23
2023-05-14T23:58:44.201Z,31.98
